sensor_id;sensor_type;location;lat;lon;timestamp;pressure;altitude;pressure_sealevel;temperature;humidity
15674;BME280;7937;48.090;16.212;2022-07-15T00:02:00;97559.34;;;19.27;72.72
15674;BME280;7937;48.090;16.212;2022-07-15T00:05:04;97555.41;;;19.00;74.52
15674;BME280;7937;48.090;16.212;2022-07-15T00:08:07;97551.66;;;18.87;74.12
15674;BME280;7937;48.090;16.212;2022-07-15T00:11:08;97565.84;;;18.87;73.97
15674;BME280;7937;48.090;16.212;2022-07-15T00:14:11;97563.38;;;18.86;74.36
15674;BME280;7937;48.090;16.212;2022-07-15T00:17:13;97570.91;;;18.82;74.36
15674;BME280;7937;48.090;16.212;2022-07-15T00:20:17;97586.31;;;18.80;75.30
15674;BME280;7937;48.090;16.212;2022-07-15T00:23:19;97596.72;;;18.75;75.29
15674;BME280;7937;48.090;16.212;2022-07-15T00:26:21;97613.66;;;18.59;75.53
15674;BME280;7937;48.090;16.212;2022-07-15T00:29:23;97644.41;;;18.47;75.83
15674;BME280;7937;48.090;16.212;2022-07-15T00:32:27;97679.22;;;18.31;76.34
15674;BME280;7937;48.090;16.212;2022-07-15T00:35:31;97715.63;;;18.32;76.31
15674;BME280;7937;48.090;16.212;2022-07-15T00:38:34;97699.56;;;18.40;76.25
15674;BME280;7937;48.090;16.212;2022-07-15T00:41:40;97698.06;;;18.46;75.54
15674;BME280;7937;48.090;16.212;2022-07-15T00:44:42;97694.69;;;18.52;75.84
15674;BME280;7937;48.090;16.212;2022-07-15T00:47:51;97685.66;;;18.53;76.78
15674;BME280;7937;48.090;16.212;2022-07-15T00:50:54;97661.16;;;18.41;77.79
15674;BME280;7937;48.090;16.212;2022-07-15T00:53:56;97649.81;;;18.31;78.58
15674;BME280;7937;48.090;16.212;2022-07-15T00:56:59;97627.63;;;18.30;79.25
15674;BME280;7937;48.090;16.212;2022-07-15T01:00:03;97615.44;;;18.28;79.88
15674;BME280;7937;48.090;16.212;2022-07-15T01:03:06;97579.94;;;18.11;80.53
15674;BME280;7937;48.090;16.212;2022-07-15T01:06:09;97567.94;;;18.07;80.35
15674;BME280;7937;48.090;16.212;2022-07-15T01:09:11;97595.88;;;17.96;80.64
15674;BME280;7937;48.090;16.212;2022-07-15T01:12:13;97599.53;;;17.95;81.24
15674;BME280;7937;48.090;16.212;2022-07-15T01:15:16;97635.91;;;17.96;81.34
15674;BME280;7937;48.090;16.212;2022-07-15T01:18:19;97653.78;;;17.96;81.93
15674;BME280;7937;48.090;16.212;2022-07-15T01:21:22;97672.97;;;17.91;82.03
15674;BME280;7937;48.090;16.212;2022-07-15T01:24:26;97679.81;;;17.86;82.55
15674;BME280;7937;48.090;16.212;2022-07-15T01:27:45;97706.34;;;17.87;82.96
15674;BME280;7937;48.090;16.212;2022-07-15T01:30:54;97697.50;;;17.87;82.77
15674;BME280;7937;48.090;16.212;2022-07-15T01:34:00;97674.97;;;17.89;82.12
15674;BME280;7937;48.090;16.212;2022-07-15T01:37:02;97664.78;;;17.93;82.00
15674;BME280;7937;48.090;16.212;2022-07-15T01:40:07;97671.28;;;17.98;82.28
15674;BME280;7937;48.090;16.212;2022-07-15T01:43:09;97670.28;;;17.99;82.12
15674;BME280;7937;48.090;16.212;2022-07-15T01:46:12;97684.47;;;18.00;82.36
15674;BME280;7937;48.090;16.212;2022-07-15T01:49:15;97681.81;;;17.92;82.53
15674;BME280;7937;48.090;16.212;2022-07-15T01:52:46;97689.66;;;17.85;82.85
15674;BME280;7937;48.090;16.212;2022-07-15T01:55:48;97684.66;;;17.82;83.45
15674;BME280;7937;48.090;16.212;2022-07-15T01:58:50;97712.69;;;17.78;83.66
15674;BME280;7937;48.090;16.212;2022-07-15T02:01:55;97697.66;;;17.69;83.57
15674;BME280;7937;48.090;16.212;2022-07-15T02:04:58;97702.16;;;17.60;84.41
15674;BME280;7937;48.090;16.212;2022-07-15T02:08:01;97725.50;;;17.58;84.59
15674;BME280;7937;48.090;16.212;2022-07-15T02:11:04;97713.00;;;17.51;83.39
15674;BME280;7937;48.090;16.212;2022-07-15T02:14:09;97711.31;;;17.42;83.44
15674;BME280;7937;48.090;16.212;2022-07-15T02:17:15;97719.78;;;17.29;83.30
15674;BME280;7937;48.090;16.212;2022-07-15T02:20:17;97713.59;;;17.12;81.74
15674;BME280;7937;48.090;16.212;2022-07-15T02:23:20;97717.69;;;16.90;81.04
15674;BME280;7937;48.090;16.212;2022-07-15T02:26:22;97752.47;;;16.73;81.40
15674;BME280;7937;48.090;16.212;2022-07-15T02:29:25;97753.16;;;16.57;82.76
15674;BME280;7937;48.090;16.212;2022-07-15T02:32:27;97754.75;;;16.42;83.50
15674;BME280;7937;48.090;16.212;2022-07-15T02:35:30;97773.50;;;16.32;84.08
15674;BME280;7937;48.090;16.212;2022-07-15T02:38:33;97767.81;;;16.27;84.81
15674;BME280;7937;48.090;16.212;2022-07-15T02:41:35;97765.59;;;16.14;84.27
15674;BME280;7937;48.090;16.212;2022-07-15T02:44:43;97764.22;;;16.10;84.79
15674;BME280;7937;48.090;16.212;2022-07-15T02:47:46;97772.69;;;16.06;85.18
15674;BME280;7937;48.090;16.212;2022-07-15T02:50:53;97765.78;;;15.95;85.17
15674;BME280;7937;48.090;16.212;2022-07-15T02:53:55;97746.59;;;15.92;86.19
15674;BME280;7937;48.090;16.212;2022-07-15T02:56:58;97754.97;;;15.97;86.74
15674;BME280;7937;48.090;16.212;2022-07-15T03:00:03;97763.75;;;15.97;86.90
15674;BME280;7937;48.090;16.212;2022-07-15T03:03:06;97756.88;;;15.86;86.82
15674;BME280;7937;48.090;16.212;2022-07-15T03:06:11;97748.22;;;15.84;87.38
15674;BME280;7937;48.090;16.212;2022-07-15T03:09:13;97740.09;;;15.86;87.84
15674;BME280;7937;48.090;16.212;2022-07-15T03:12:15;97745.41;;;15.86;87.92
15674;BME280;7937;48.090;16.212;2022-07-15T03:15:17;97752.03;;;15.82;88.04
15674;BME280;7937;48.090;16.212;2022-07-15T03:18:20;97751.72;;;15.85;88.29
15674;BME280;7937;48.090;16.212;2022-07-15T03:21:23;97755.97;;;15.78;88.32
15674;BME280;7937;48.090;16.212;2022-07-15T03:24:25;97759.63;;;15.77;88.17
15674;BME280;7937;48.090;16.212;2022-07-15T03:27:30;97749.28;;;15.74;87.73
15674;BME280;7937;48.090;16.212;2022-07-15T03:30:34;97750.97;;;15.75;87.67
15674;BME280;7937;48.090;16.212;2022-07-15T03:33:36;97771.56;;;15.73;87.94
15674;BME280;7937;48.090;16.212;2022-07-15T03:36:39;97764.56;;;15.72;88.05
15674;BME280;7937;48.090;16.212;2022-07-15T03:39:42;97764.28;;;15.75;88.42
15674;BME280;7937;48.090;16.212;2022-07-15T03:42:44;97759.09;;;15.73;88.25
15674;BME280;7937;48.090;16.212;2022-07-15T03:45:47;97759.47;;;15.78;88.13
15674;BME280;7937;48.090;16.212;2022-07-15T03:48:52;97763.94;;;15.78;88.65
15674;BME280;7937;48.090;16.212;2022-07-15T03:51:55;97764.13;;;15.76;88.78
15674;BME280;7937;48.090;16.212;2022-07-15T03:55:00;97770.78;;;15.80;88.64
15674;BME280;7937;48.090;16.212;2022-07-15T03:58:05;97762.50;;;15.83;88.96
15674;BME280;7937;48.090;16.212;2022-07-15T04:01:08;97764.19;;;15.84;89.20
15674;BME280;7937;48.090;16.212;2022-07-15T04:04:11;97765.38;;;15.90;89.42
15674;BME280;7937;48.090;16.212;2022-07-15T04:07:13;97762.03;;;15.88;89.37
15674;BME280;7937;48.090;16.212;2022-07-15T04:10:15;97765.53;;;15.88;89.33
15674;BME280;7937;48.090;16.212;2022-07-15T04:13:17;97774.50;;;15.87;89.55
15674;BME280;7937;48.090;16.212;2022-07-15T04:16:20;97769.81;;;15.81;89.78
15674;BME280;7937;48.090;16.212;2022-07-15T04:19:24;97775.66;;;15.85;90.25
15674;BME280;7937;48.090;16.212;2022-07-15T04:22:41;97774.84;;;15.84;89.82
15674;BME280;7937;48.090;16.212;2022-07-15T04:25:44;97774.16;;;15.82;90.05
15674;BME280;7937;48.090;16.212;2022-07-15T04:28:49;97772.78;;;15.78;90.16
15674;BME280;7937;48.090;16.212;2022-07-15T04:31:52;97772.41;;;15.73;90.40
15674;BME280;7937;48.090;16.212;2022-07-15T04:35:02;97773.53;;;15.71;90.45
15674;BME280;7937;48.090;16.212;2022-07-15T04:38:05;97777.34;;;15.68;90.44
15674;BME280;7937;48.090;16.212;2022-07-15T04:41:07;97781.22;;;15.74;89.60
15674;BME280;7937;48.090;16.212;2022-07-15T04:44:10;97790.88;;;15.75;90.12
15674;BME280;7937;48.090;16.212;2022-07-15T04:47:12;97785.41;;;15.76;90.39
15674;BME280;7937;48.090;16.212;2022-07-15T04:50:19;97787.81;;;15.87;90.11
15674;BME280;7937;48.090;16.212;2022-07-15T04:53:40;97802.34;;;15.93;90.10
15674;BME280;7937;48.090;16.212;2022-07-15T04:56:42;97808.13;;;16.06;89.54
15674;BME280;7937;48.090;16.212;2022-07-15T04:59:44;97802.53;;;16.17;89.35
15674;BME280;7937;48.090;16.212;2022-07-15T05:02:50;97818.59;;;16.26;88.69
15674;BME280;7937;48.090;16.212;2022-07-15T05:05:52;97825.94;;;16.32;88.42
15674;BME280;7937;48.090;16.212;2022-07-15T05:09:03;97832.66;;;16.36;88.27
15674;BME280;7937;48.090;16.212;2022-07-15T05:12:08;97843.34;;;16.44;88.01
15674;BME280;7937;48.090;16.212;2022-07-15T05:15:20;97831.03;;;16.43;87.42
15674;BME280;7937;48.090;16.212;2022-07-15T05:18:22;97829.34;;;16.42;87.59
15674;BME280;7937;48.090;16.212;2022-07-15T05:21:27;97822.97;;;16.35;87.71
15674;BME280;7937;48.090;16.212;2022-07-15T05:24:29;97829.44;;;16.32;87.75
15674;BME280;7937;48.090;16.212;2022-07-15T05:27:34;97828.75;;;16.30;87.72
15674;BME280;7937;48.090;16.212;2022-07-15T05:30:37;97831.06;;;16.25;87.61
15674;BME280;7937;48.090;16.212;2022-07-15T05:33:41;97840.34;;;16.21;87.57
15674;BME280;7937;48.090;16.212;2022-07-15T05:36:44;97848.72;;;16.26;87.77
15674;BME280;7937;48.090;16.212;2022-07-15T05:39:49;97853.28;;;16.34;87.53
15674;BME280;7937;48.090;16.212;2022-07-15T05:43:06;97861.25;;;16.34;86.59
15674;BME280;7937;48.090;16.212;2022-07-15T05:46:12;97858.59;;;16.34;86.54
15674;BME280;7937;48.090;16.212;2022-07-15T05:49:24;97868.63;;;16.40;85.76
15674;BME280;7937;48.090;16.212;2022-07-15T05:52:28;97871.66;;;16.45;85.76
15674;BME280;7937;48.090;16.212;2022-07-15T05:55:31;97876.00;;;16.46;85.04
15674;BME280;7937;48.090;16.212;2022-07-15T05:58:33;97880.25;;;16.56;85.31
15674;BME280;7937;48.090;16.212;2022-07-15T06:01:54;97884.50;;;16.49;84.71
15674;BME280;7937;48.090;16.212;2022-07-15T06:04:57;97882.28;;;16.37;83.78
15674;BME280;7937;48.090;16.212;2022-07-15T06:08:00;97885.22;;;16.34;84.38
15674;BME280;7937;48.090;16.212;2022-07-15T06:11:06;97895.06;;;16.33;84.32
15674;BME280;7937;48.090;16.212;2022-07-15T06:14:10;97904.25;;;16.21;84.11
15674;BME280;7937;48.090;16.212;2022-07-15T06:17:13;97904.72;;;16.16;81.84
15674;BME280;7937;48.090;16.212;2022-07-15T06:20:16;97903.13;;;16.23;82.74
15674;BME280;7937;48.090;16.212;2022-07-15T06:23:19;97907.97;;;16.28;82.16
15674;BME280;7937;48.090;16.212;2022-07-15T06:26:28;97905.22;;;16.38;81.31
15674;BME280;7937;48.090;16.212;2022-07-15T06:29:34;97912.63;;;16.44;81.68
15674;BME280;7937;48.090;16.212;2022-07-15T06:32:36;97906.91;;;16.39;80.24
15674;BME280;7937;48.090;16.212;2022-07-15T06:35:39;97917.25;;;16.42;79.47
15674;BME280;7937;48.090;16.212;2022-07-15T06:38:46;97922.50;;;16.51;80.37
15674;BME280;7937;48.090;16.212;2022-07-15T06:41:52;97922.88;;;16.56;78.95
15674;BME280;7937;48.090;16.212;2022-07-15T06:44:56;97929.00;;;16.67;78.72
15674;BME280;7937;48.090;16.212;2022-07-15T06:47:58;97939.88;;;16.73;79.49
15674;BME280;7937;48.090;16.212;2022-07-15T06:51:01;97948.63;;;16.66;76.77
15674;BME280;7937;48.090;16.212;2022-07-15T06:54:03;97958.72;;;16.80;77.00
15674;BME280;7937;48.090;16.212;2022-07-15T06:57:08;97948.19;;;17.22;76.34
15674;BME280;7937;48.090;16.212;2022-07-15T07:00:16;97954.47;;;17.81;73.09
15674;BME280;7937;48.090;16.212;2022-07-15T08:02:48;97968.91;;;21.78;50.29
15674;BME280;7937;48.090;16.212;2022-07-15T08:05:51;97972.72;;;21.98;50.86
15674;BME280;7937;48.090;16.212;2022-07-15T08:08:55;97975.97;;;22.44;50.76
15674;BME280;7937;48.090;16.212;2022-07-15T08:11:57;97972.84;;;22.84;48.90
15674;BME280;7937;48.090;16.212;2022-07-15T08:14:59;97972.66;;;22.85;48.52
15674;BME280;7937;48.090;16.212;2022-07-15T08:18:01;97975.63;;;22.97;47.79
15674;BME280;7937;48.090;16.212;2022-07-15T08:21:05;97971.09;;;22.76;47.82
15674;BME280;7937;48.090;16.212;2022-07-15T08:24:07;97978.81;;;23.07;47.74
15674;BME280;7937;48.090;16.212;2022-07-15T08:27:09;97965.22;;;23.43;47.13
15674;BME280;7937;48.090;16.212;2022-07-15T08:30:11;97974.50;;;23.62;45.64
15674;BME280;7937;48.090;16.212;2022-07-15T08:33:14;97963.34;;;24.12;45.86
15674;BME280;7937;48.090;16.212;2022-07-15T08:36:16;97975.31;;;24.51;44.45
15674;BME280;7937;48.090;16.212;2022-07-15T08:39:18;97977.31;;;24.22;43.95
15674;BME280;7937;48.090;16.212;2022-07-15T08:42:21;97972.34;;;24.33;42.10
15674;BME280;7937;48.090;16.212;2022-07-15T08:45:23;97966.59;;;24.55;42.34
15674;BME280;7937;48.090;16.212;2022-07-15T08:48:28;97947.13;;;24.73;41.89
15674;BME280;7937;48.090;16.212;2022-07-15T08:51:33;97953.94;;;24.62;42.10
15674;BME280;7937;48.090;16.212;2022-07-15T08:54:38;97947.53;;;24.90;43.01
15674;BME280;7937;48.090;16.212;2022-07-15T08:57:40;97952.34;;;24.94;40.81
15674;BME280;7937;48.090;16.212;2022-07-15T09:00:46;97955.88;;;25.15;41.12
15674;BME280;7937;48.090;16.212;2022-07-15T09:03:48;97952.94;;;24.90;41.43
15674;BME280;7937;48.090;16.212;2022-07-15T09:06:50;97940.84;;;24.66;40.72
15674;BME280;7937;48.090;16.212;2022-07-15T09:09:53;97954.63;;;25.24;41.47
15674;BME280;7937;48.090;16.212;2022-07-15T09:12:55;97946.28;;;25.45;38.55
15674;BME280;7937;48.090;16.212;2022-07-15T09:16:04;97941.69;;;25.52;39.03
15674;BME280;7937;48.090;16.212;2022-07-15T09:19:06;97950.13;;;25.95;38.58
15674;BME280;7937;48.090;16.212;2022-07-15T09:22:11;97952.53;;;26.10;40.55
15674;BME280;7937;48.090;16.212;2022-07-15T09:25:13;97955.00;;;26.18;38.07
15674;BME280;7937;48.090;16.212;2022-07-15T09:28:17;97955.06;;;26.50;37.44
15674;BME280;7937;48.090;16.212;2022-07-15T09:35:05;97949.50;;;27.26;36.36
15674;BME280;7937;48.090;16.212;2022-07-15T09:38:37;97951.56;;;27.73;34.98
15674;BME280;7937;48.090;16.212;2022-07-15T09:41:43;97947.16;;;28.09;35.05
15674;BME280;7937;48.090;16.212;2022-07-15T09:44:46;97943.28;;;28.05;35.92
15674;BME280;7937;48.090;16.212;2022-07-15T09:48:10;97954.69;;;27.52;35.43
15674;BME280;7937;48.090;16.212;2022-07-15T09:51:16;97953.91;;;27.70;35.00
15674;BME280;7937;48.090;16.212;2022-07-15T09:54:19;97953.91;;;27.70;35.19
15674;BME280;7937;48.090;16.212;2022-07-15T09:57:21;97949.69;;;27.74;34.55
15674;BME280;7937;48.090;16.212;2022-07-15T10:00:23;97935.59;;;27.83;33.94
15674;BME280;7937;48.090;16.212;2022-07-15T10:03:25;97948.16;;;27.78;34.33
15674;BME280;7937;48.090;16.212;2022-07-15T10:06:28;97943.75;;;27.40;35.73
15674;BME280;7937;48.090;16.212;2022-07-15T10:09:32;97940.56;;;27.68;35.06
15674;BME280;7937;48.090;16.212;2022-07-15T10:12:55;97936.22;;;28.34;31.95
15674;BME280;7937;48.090;16.212;2022-07-15T10:16:21;97934.59;;;28.14;33.98
15674;BME280;7937;48.090;16.212;2022-07-15T10:29:54;97945.09;;;27.49;34.51
15674;BME280;7937;48.090;16.212;2022-07-15T10:33:12;97941.13;;;26.77;36.60
15674;BME280;7937;48.090;16.212;2022-07-15T10:36:15;97935.03;;;25.61;37.65
15674;BME280;7937;48.090;16.212;2022-07-15T10:39:20;97937.47;;;25.76;38.04
15674;BME280;7937;48.090;16.212;2022-07-15T10:42:23;97937.19;;;25.97;37.82
15674;BME280;7937;48.090;16.212;2022-07-15T10:45:26;97929.16;;;25.78;37.15
15674;BME280;7937;48.090;16.212;2022-07-15T10:48:29;97931.25;;;26.90;36.11
15674;BME280;7937;48.090;16.212;2022-07-15T10:54:39;97939.72;;;27.68;34.47
15674;BME280;7937;48.090;16.212;2022-07-15T10:57:49;97940.72;;;27.73;34.60
15674;BME280;7937;48.090;16.212;2022-07-15T11:00:52;97936.03;;;27.37;34.92
15674;BME280;7937;48.090;16.212;2022-07-15T11:10:19;97932.06;;;26.90;35.80
15674;BME280;7937;48.090;16.212;2022-07-15T11:13:34;97936.31;;;27.54;34.41
15674;BME280;7937;48.090;16.212;2022-07-15T11:16:36;97924.63;;;28.26;33.56
15674;BME280;7937;48.090;16.212;2022-07-15T11:19:39;97919.59;;;27.94;32.94
15674;BME280;7937;48.090;16.212;2022-07-15T11:22:44;97923.09;;;27.82;34.13
15674;BME280;7937;48.090;16.212;2022-07-15T11:25:46;97927.44;;;27.65;35.51
15674;BME280;7937;48.090;16.212;2022-07-15T11:28:52;97926.38;;;28.03;33.22
15674;BME280;7937;48.090;16.212;2022-07-15T11:31:59;97930.81;;;28.45;33.83
15674;BME280;7937;48.090;16.212;2022-07-15T11:35:02;97922.81;;;28.80;32.65
15674;BME280;7937;48.090;16.212;2022-07-15T11:38:04;97923.19;;;28.95;32.10
15674;BME280;7937;48.090;16.212;2022-07-15T11:41:06;97909.28;;;29.39;31.57
15674;BME280;7937;48.090;16.212;2022-07-15T11:44:35;97905.81;;;29.55;31.80
15674;BME280;7937;48.090;16.212;2022-07-15T11:47:51;97909.81;;;29.76;31.07
15674;BME280;7937;48.090;16.212;2022-07-15T11:50:56;97907.59;;;29.61;30.32
15674;BME280;7937;48.090;16.212;2022-07-15T11:53:59;97913.16;;;29.19;30.89
15674;BME280;7937;48.090;16.212;2022-07-15T11:57:04;97908.91;;;29.12;33.14
15674;BME280;7937;48.090;16.212;2022-07-15T12:00:10;97911.53;;;29.42;32.18
15674;BME280;7937;48.090;16.212;2022-07-15T12:03:12;97911.13;;;29.26;31.73
15674;BME280;7937;48.090;16.212;2022-07-15T12:06:20;97908.81;;;28.23;32.91
15674;BME280;7937;48.090;16.212;2022-07-15T12:09:22;97913.88;;;27.65;34.35
15674;BME280;7937;48.090;16.212;2022-07-15T12:12:24;97907.00;;;28.17;32.79
15674;BME280;7937;48.090;16.212;2022-07-15T12:15:26;97905.00;;;28.84;33.62
15674;BME280;7937;48.090;16.212;2022-07-15T12:18:29;97902.50;;;29.06;31.91
15674;BME280;7937;48.090;16.212;2022-07-15T12:21:32;97908.91;;;29.12;31.79
15674;BME280;7937;48.090;16.212;2022-07-15T12:24:48;97903.69;;;28.87;31.75
15674;BME280;7937;48.090;16.212;2022-07-15T12:27:54;97900.13;;;28.15;32.99
15674;BME280;7937;48.090;16.212;2022-07-15T12:30:56;97903.09;;;28.43;32.96
15674;BME280;7937;48.090;16.212;2022-07-15T12:33:59;97894.34;;;28.41;31.85
15674;BME280;7937;48.090;16.212;2022-07-15T12:37:01;97900.41;;;28.07;32.47
15674;BME280;7937;48.090;16.212;2022-07-15T12:40:06;97901.00;;;27.79;32.29
15674;BME280;7937;48.090;16.212;2022-07-15T12:43:08;97888.31;;;27.91;33.30
15674;BME280;7937;48.090;16.212;2022-07-15T12:46:11;97892.53;;;28.23;31.66
15674;BME280;7937;48.090;16.212;2022-07-15T12:49:40;97890.13;;;29.10;30.87
15674;BME280;7937;48.090;16.212;2022-07-15T12:52:43;97884.63;;;30.20;30.03
15674;BME280;7937;48.090;16.212;2022-07-15T12:55:51;97879.78;;;30.39;29.04
15674;BME280;7937;48.090;16.212;2022-07-15T12:58:54;97886.13;;;30.28;29.57
15674;BME280;7937;48.090;16.212;2022-07-15T13:02:14;97885.97;;;30.06;29.75
15674;BME280;7937;48.090;16.212;2022-07-15T13:05:16;97889.81;;;29.82;31.21
15674;BME280;7937;48.090;16.212;2022-07-15T13:08:21;97886.09;;;29.13;31.58
15674;BME280;7937;48.090;16.212;2022-07-15T13:11:24;97885.16;;;29.19;31.55
15674;BME280;7937;48.090;16.212;2022-07-15T13:14:26;97882.53;;;29.47;31.92
15674;BME280;7937;48.090;16.212;2022-07-15T13:17:28;97886.00;;;29.43;31.12
15674;BME280;7937;48.090;16.212;2022-07-15T13:20:31;97889.16;;;29.63;30.88
15674;BME280;7937;48.090;16.212;2022-07-15T13:23:33;97879.38;;;29.90;29.92
15674;BME280;7937;48.090;16.212;2022-07-15T13:26:35;97879.22;;;28.87;30.41
15674;BME280;7937;48.090;16.212;2022-07-15T13:29:37;97877.97;;;28.00;31.44
15674;BME280;7937;48.090;16.212;2022-07-15T13:32:40;97879.22;;;28.15;31.99
15674;BME280;7937;48.090;16.212;2022-07-15T13:35:42;97872.09;;;28.62;31.12
15674;BME280;7937;48.090;16.212;2022-07-15T13:38:44;97879.09;;;29.17;30.56
15674;BME280;7937;48.090;16.212;2022-07-15T13:41:46;97876.53;;;29.10;31.31
15674;BME280;7937;48.090;16.212;2022-07-15T13:44:48;97874.13;;;29.25;30.58
15674;BME280;7937;48.090;16.212;2022-07-15T13:47:50;97876.53;;;29.33;31.20
15674;BME280;7937;48.090;16.212;2022-07-15T13:50:52;97882.66;;;29.17;31.62
15674;BME280;7937;48.090;16.212;2022-07-15T13:54:13;97872.16;;;29.44;31.97
15674;BME280;7937;48.090;16.212;2022-07-15T13:57:15;97873.97;;;29.79;29.66
15674;BME280;7937;48.090;16.212;2022-07-15T14:00:20;97880.22;;;30.48;28.82
15674;BME280;7937;48.090;16.212;2022-07-15T14:03:23;97870.63;;;30.90;27.68
15674;BME280;7937;48.090;16.212;2022-07-15T14:06:26;97870.78;;;30.84;28.41
15674;BME280;7937;48.090;16.212;2022-07-15T14:09:28;97865.94;;;31.79;26.25
15674;BME280;7937;48.090;16.212;2022-07-15T14:12:30;97862.19;;;33.77;25.21
15674;BME280;7937;48.090;16.212;2022-07-15T14:15:32;97872.03;;;34.61;22.34
15674;BME280;7937;48.090;16.212;2022-07-15T14:18:39;97865.63;;;35.82;20.85
15674;BME280;7937;48.090;16.212;2022-07-15T14:21:51;97862.34;;;35.65;20.43
15674;BME280;7937;48.090;16.212;2022-07-15T14:24:54;97859.84;;;37.40;19.48
15674;BME280;7937;48.090;16.212;2022-07-15T14:27:57;97855.00;;;37.26;18.54
15674;BME280;7937;48.090;16.212;2022-07-15T14:30:59;97852.13;;;39.02;17.43
15674;BME280;7937;48.090;16.212;2022-07-15T14:34:01;97847.44;;;40.26;16.23
15674;BME280;7937;48.090;16.212;2022-07-15T14:37:03;97846.97;;;41.57;15.71
15674;BME280;7937;48.090;16.212;2022-07-15T14:40:25;97851.44;;;41.45;14.76
15674;BME280;7937;48.090;16.212;2022-07-15T14:43:27;97844.06;;;40.65;14.96
15674;BME280;7937;48.090;16.212;2022-07-15T14:46:29;97840.88;;;40.93;15.36
15674;BME280;7937;48.090;16.212;2022-07-15T14:49:32;97841.22;;;40.92;15.65
15674;BME280;7937;48.090;16.212;2022-07-15T14:52:34;97832.22;;;41.48;14.39
15674;BME280;7937;48.090;16.212;2022-07-15T14:55:36;97836.09;;;40.85;14.81
15674;BME280;7937;48.090;16.212;2022-07-15T14:58:38;97833.38;;;40.94;14.81
15674;BME280;7937;48.090;16.212;2022-07-15T15:01:42;97828.69;;;40.72;14.31
15674;BME280;7937;48.090;16.212;2022-07-15T15:04:48;97823.03;;;41.08;13.91
15674;BME280;7937;48.090;16.212;2022-07-15T15:07:50;97823.16;;;40.36;15.67
15674;BME280;7937;48.090;16.212;2022-07-15T15:10:52;97831.66;;;39.90;15.26
15674;BME280;7937;48.090;16.212;2022-07-15T15:13:54;97829.06;;;39.94;15.29
15674;BME280;7937;48.090;16.212;2022-07-15T15:16:57;97818.44;;;40.37;14.78
15674;BME280;7937;48.090;16.212;2022-07-15T15:20:04;97831.63;;;40.04;14.67
15674;BME280;7937;48.090;16.212;2022-07-15T15:23:08;97831.84;;;39.80;15.26
15674;BME280;7937;48.090;16.212;2022-07-15T15:26:10;97833.06;;;40.51;15.64
15674;BME280;7937;48.090;16.212;2022-07-15T15:29:24;97826.72;;;41.17;14.72
15674;BME280;7937;48.090;16.212;2022-07-15T15:32:28;97823.22;;;40.45;14.76
15674;BME280;7937;48.090;16.212;2022-07-15T15:35:31;97827.66;;;39.69;14.98
15674;BME280;7937;48.090;16.212;2022-07-15T15:38:33;97832.63;;;39.26;15.47
15674;BME280;7937;48.090;16.212;2022-07-15T15:41:35;97828.72;;;38.05;16.19
15674;BME280;7937;48.090;16.212;2022-07-15T15:44:38;97831.97;;;33.57;20.02
15674;BME280;7937;48.090;16.212;2022-07-15T15:47:40;97825.25;;;33.85;19.88
15674;BME280;7937;48.090;16.212;2022-07-15T15:50:43;97827.81;;;36.08;17.87
15674;BME280;7937;48.090;16.212;2022-07-15T15:53:45;97838.41;;;36.35;17.90
15674;BME280;7937;48.090;16.212;2022-07-15T15:56:47;97839.13;;;35.27;18.63
15674;BME280;7937;48.090;16.212;2022-07-15T15:59:49;97837.22;;;33.21;20.53
15674;BME280;7937;48.090;16.212;2022-07-15T16:02:52;97838.84;;;34.47;19.71
15674;BME280;7937;48.090;16.212;2022-07-15T16:05:54;97828.16;;;35.06;18.34
15674;BME280;7937;48.090;16.212;2022-07-15T16:08:58;97832.19;;;35.44;18.13
15674;BME280;7937;48.090;16.212;2022-07-15T16:12:00;97815.91;;;37.53;17.14
15674;BME280;7937;48.090;16.212;2022-07-15T16:15:03;97818.91;;;39.07;16.02
15674;BME280;7937;48.090;16.212;2022-07-15T16:18:05;97830.28;;;39.19;15.48
15674;BME280;7937;48.090;16.212;2022-07-15T16:21:08;97827.84;;;39.45;16.25
15674;BME280;7937;48.090;16.212;2022-07-15T16:24:10;97827.84;;;38.66;16.63
15674;BME280;7937;48.090;16.212;2022-07-15T16:27:12;97828.31;;;38.55;17.80
15674;BME280;7937;48.090;16.212;2022-07-15T16:30:15;97836.06;;;38.71;17.64
15674;BME280;7937;48.090;16.212;2022-07-15T16:33:27;97824.19;;;36.95;18.55
15674;BME280;7937;48.090;16.212;2022-07-15T16:36:29;97829.44;;;33.45;22.08
15674;BME280;7937;48.090;16.212;2022-07-15T16:39:31;97819.78;;;31.78;23.47
15674;BME280;7937;48.090;16.212;2022-07-15T16:42:33;97828.69;;;30.29;25.11
15674;BME280;7937;48.090;16.212;2022-07-15T16:45:35;97836.78;;;29.32;27.00
15674;BME280;7937;48.090;16.212;2022-07-15T16:48:39;97834.22;;;28.38;29.60
15674;BME280;7937;48.090;16.212;2022-07-15T16:51:41;97834.78;;;27.32;31.33
15674;BME280;7937;48.090;16.212;2022-07-15T16:54:43;97838.59;;;26.81;30.55
15674;BME280;7937;48.090;16.212;2022-07-15T16:57:45;97841.81;;;26.71;33.50
15674;BME280;7937;48.090;16.212;2022-07-15T17:00:47;97838.84;;;26.23;35.64
15674;BME280;7937;48.090;16.212;2022-07-15T17:03:49;97845.25;;;25.91;35.54
15674;BME280;7937;48.090;16.212;2022-07-15T17:06:52;97839.75;;;25.59;34.34
15674;BME280;7937;48.090;16.212;2022-07-15T17:09:54;97839.44;;;25.36;32.64
15674;BME280;7937;48.090;16.212;2022-07-15T17:12:57;97838.03;;;25.20;35.70
15674;BME280;7937;48.090;16.212;2022-07-15T17:15:59;97835.53;;;25.19;37.89
15674;BME280;7937;48.090;16.212;2022-07-15T17:19:01;97841.19;;;24.84;36.91
15674;BME280;7937;48.090;16.212;2022-07-15T17:22:03;97840.38;;;24.64;35.98
15674;BME280;7937;48.090;16.212;2022-07-15T17:25:06;97839.53;;;24.57;37.21
15674;BME280;7937;48.090;16.212;2022-07-15T17:28:08;97844.31;;;24.42;38.75
15674;BME280;7937;48.090;16.212;2022-07-15T17:31:10;97854.19;;;23.95;41.11
15674;BME280;7937;48.090;16.212;2022-07-15T17:34:13;97854.13;;;23.34;43.42
15674;BME280;7937;48.090;16.212;2022-07-15T17:37:15;97852.53;;;23.12;44.76
15674;BME280;7937;48.090;16.212;2022-07-15T17:40:17;97851.28;;;22.80;46.38